createdAt,value
2024-02-19T00:00:59.377Z,-0.29
2024-02-19T00:06:04.800Z,-0.28
2024-02-19T00:11:08.735Z,-0.26
2024-02-19T00:16:10.357Z,-0.27
2024-02-19T00:21:12.118Z,-0.27
2024-02-19T00:26:14.960Z,-0.25
2024-02-19T00:31:17.467Z,-0.24
2024-02-19T00:36:21.186Z,-0.25
2024-02-19T00:41:23.360Z,-0.24
2024-02-19T00:46:25.235Z,-0.24
2024-02-19T00:51:26.875Z,-0.24
2024-02-19T00:56:28.834Z,-0.24
2024-02-19T01:01:31.953Z,-0.23
2024-02-19T01:06:33.648Z,-0.22
2024-02-19T01:11:36.056Z,-0.19
2024-02-19T01:16:37.916Z,-0.17
2024-02-19T01:21:39.818Z,-0.19
2024-02-19T01:26:41.360Z,-0.18
2024-02-19T01:31:42.898Z,-0.18
2024-02-19T01:36:45.402Z,-0.19
2024-02-19T01:41:46.999Z,-0.19
2024-02-19T01:46:50.250Z,-0.20
2024-02-19T01:51:53.030Z,-0.20
2024-02-19T01:56:55.136Z,-0.18
2024-02-19T02:01:57.080Z,-0.18
2024-02-19T02:06:58.988Z,-0.18
2024-02-19T02:12:00.667Z,-0.18
2024-02-19T02:17:02.310Z,-0.21
2024-02-19T02:22:03.999Z,-0.28
2024-02-19T02:27:05.885Z,-0.34
2024-02-19T02:32:07.791Z,-0.38
2024-02-19T02:37:09.418Z,-0.42
2024-02-19T02:42:11.109Z,-0.44
2024-02-19T02:47:12.661Z,-0.47
2024-02-19T02:52:14.314Z,-0.52
2024-02-19T02:57:15.892Z,-0.55
2024-02-19T03:02:17.421Z,-0.56
2024-02-19T03:07:19.116Z,-0.54
2024-02-19T03:12:20.772Z,-0.50
2024-02-19T03:17:24.112Z,-0.45
2024-02-19T03:22:27.129Z,-0.43
2024-02-19T03:27:28.748Z,-0.41
2024-02-19T03:32:30.312Z,-0.38
2024-02-19T03:37:32.204Z,-0.35
2024-02-19T03:42:34.589Z,-0.33
2024-02-19T03:47:36.313Z,-0.31
2024-02-19T03:52:39.058Z,-0.30
2024-02-19T03:57:40.693Z,-0.28
2024-02-19T04:02:42.462Z,-0.28
2024-02-19T04:07:44.076Z,-0.28
2024-02-19T04:12:45.721Z,-0.28
2024-02-19T04:17:49.040Z,-0.29
2024-02-19T04:22:50.835Z,-0.32
2024-02-19T04:27:53.448Z,-0.33
2024-02-19T04:32:55.169Z,-0.36
2024-02-19T04:37:56.965Z,-0.40
2024-02-19T04:42:58.652Z,-0.42
2024-02-19T04:48:00.381Z,-0.43
2024-02-19T04:53:02.050Z,-0.44
2024-02-19T04:58:03.762Z,-0.45
2024-02-19T05:03:05.653Z,-0.47
2024-02-19T05:08:07.727Z,-0.47
2024-02-19T05:13:09.343Z,-0.47
2024-02-19T05:18:11.121Z,-0.46
2024-02-19T05:23:12.728Z,-0.49
2024-02-19T05:28:14.399Z,-0.50
2024-02-19T05:33:19.729Z,-0.47
2024-02-19T05:38:22.058Z,-0.48
2024-02-19T05:43:23.709Z,-0.50
2024-02-19T05:48:25.847Z,-0.48
2024-02-19T05:53:27.691Z,-0.46
2024-02-19T05:58:29.393Z,-0.42
2024-02-19T06:03:33.429Z,-0.40
2024-02-19T06:08:35.036Z,-0.37
2024-02-19T06:13:36.659Z,-0.33
2024-02-19T06:18:38.537Z,-0.31
2024-02-19T06:23:40.761Z,-0.29
2024-02-19T06:28:42.418Z,-0.24
2024-02-19T06:33:44.693Z,-0.21
2024-02-19T06:38:46.512Z,-0.13
2024-02-19T06:43:48.066Z,-0.05
2024-02-19T06:48:52.262Z,0.06
2024-02-19T06:53:54.268Z,0.26
2024-02-19T06:58:55.879Z,0.45
2024-02-19T07:03:57.781Z,0.53
2024-02-19T07:08:59.476Z,0.64
2024-02-19T07:14:01.026Z,0.69
2024-02-19T07:19:02.865Z,0.80
2024-02-19T07:24:04.891Z,0.83
2024-02-19T07:29:06.608Z,0.80
2024-02-19T07:34:09.179Z,0.80
2024-02-19T07:39:12.006Z,0.85
2024-02-19T07:44:14.025Z,0.88
2024-02-19T07:49:15.850Z,0.98
2024-02-19T07:54:17.668Z,1.12
2024-02-19T07:59:21.037Z,1.23
2024-02-19T08:04:28.294Z,1.27
2024-02-19T08:09:30.060Z,1.30
2024-02-19T08:14:31.724Z,1.41
2024-02-19T08:19:34.635Z,1.51
2024-02-19T08:24:39.206Z,1.59
2024-02-19T08:29:40.797Z,1.70
2024-02-19T08:34:42.983Z,1.81
2024-02-19T08:39:45.769Z,1.88
2024-02-19T08:44:47.459Z,1.90
2024-02-19T08:49:49.310Z,2.02
2024-02-19T08:54:51.199Z,2.12
2024-02-19T08:59:53.459Z,2.24
2024-02-19T09:04:55.381Z,2.40
2024-02-19T09:09:57.162Z,2.46
2024-02-19T09:14:59.702Z,2.53
2024-02-19T09:20:02.100Z,2.73
2024-02-19T09:25:05.172Z,2.83
2024-02-19T09:30:09.134Z,2.62
2024-02-19T09:35:11.026Z,2.61
2024-02-19T09:40:14.020Z,2.67
2024-02-19T09:45:20.686Z,2.85
2024-02-19T09:50:24.287Z,2.99
2024-02-19T09:55:26.551Z,2.96
2024-02-19T10:00:31.012Z,2.86
2024-02-19T10:05:35.408Z,2.74
2024-02-19T10:10:39.504Z,2.59
2024-02-19T10:15:41.128Z,2.53
2024-02-19T10:20:52.298Z,2.46
2024-02-19T10:25:55.515Z,2.34
2024-02-19T10:30:59.796Z,2.22
2024-02-19T10:36:03.974Z,2.14
2024-02-19T10:41:06.048Z,2.16
2024-02-19T10:46:07.697Z,2.23
2024-02-19T10:51:09.333Z,2.17
2024-02-19T10:56:19.034Z,2.17
2024-02-19T11:01:23.544Z,2.13
2024-02-19T11:06:25.363Z,2.19
2024-02-19T11:11:27.239Z,2.21
2024-02-19T11:16:29.729Z,2.27
2024-02-19T11:21:31.623Z,2.33
2024-02-19T11:26:33.260Z,2.44
2024-02-19T11:31:35.074Z,2.64
2024-02-19T11:36:36.646Z,2.69
2024-02-19T11:41:38.908Z,2.70
2024-02-19T11:46:44.933Z,2.65
2024-02-19T11:51:54.435Z,2.62
2024-02-19T11:57:04.837Z,2.58
2024-02-19T12:02:07.802Z,2.61
2024-02-19T12:12:27.933Z,2.61
2024-02-19T12:17:31.896Z,2.68
2024-02-19T12:22:35.452Z,2.63
2024-02-19T12:27:37.411Z,2.57
2024-02-19T12:32:40.398Z,2.54
2024-02-19T12:37:42.199Z,2.52
2024-02-19T12:42:43.905Z,2.48
2024-02-19T12:47:45.741Z,2.45
2024-02-19T12:52:47.962Z,2.49
2024-02-19T12:57:49.742Z,2.50
2024-02-19T13:02:51.551Z,2.46
2024-02-19T13:07:53.337Z,2.43
2024-02-19T13:12:55.952Z,2.43
2024-02-19T13:17:58.096Z,2.41
2024-02-19T13:22:59.677Z,2.40
2024-02-19T13:28:01.234Z,2.42
2024-02-19T13:33:07.679Z,2.45
2024-02-19T13:38:46.162Z,2.47
2024-02-19T13:43:47.883Z,2.51
2024-02-19T13:49:00.045Z,2.57
2024-02-19T13:54:01.755Z,2.60
2024-02-19T13:59:06.882Z,2.57
2024-02-19T14:04:08.780Z,2.56
2024-02-19T14:09:12.748Z,2.57
2024-02-19T14:14:14.436Z,2.58
2024-02-19T14:19:16.219Z,2.62
2024-02-19T14:24:19.316Z,2.63
2024-02-19T14:29:21.066Z,2.66
2024-02-19T14:34:24.645Z,2.68
2024-02-19T14:39:28.317Z,2.70
2024-02-19T14:44:29.985Z,2.68
2024-02-19T14:49:32.145Z,2.69
2024-02-19T14:54:34.668Z,2.70
2024-02-19T14:59:41.300Z,2.72
2024-02-19T15:04:43.048Z,2.75
2024-02-19T15:09:44.675Z,2.76
2024-02-19T15:14:47.396Z,2.76
2024-02-19T15:19:49.147Z,2.77
2024-02-19T15:24:51.276Z,2.79
2024-02-19T15:29:54.813Z,2.81
2024-02-19T15:34:56.436Z,2.84
2024-02-19T15:39:58.197Z,2.87
2024-02-19T15:44:59.883Z,2.90
2024-02-19T15:50:01.796Z,2.92
2024-02-19T15:55:07.097Z,2.94
2024-02-19T16:00:16.809Z,2.95
2024-02-19T16:05:18.725Z,2.99
2024-02-19T16:10:21.632Z,3.04
2024-02-19T16:15:23.465Z,3.08
2024-02-19T16:20:25.042Z,3.12
2024-02-19T16:25:27.687Z,3.15
2024-02-19T16:30:34.973Z,3.16
2024-02-19T16:35:39.526Z,3.19
2024-02-19T16:40:41.307Z,3.23
2024-02-19T16:45:43.915Z,3.27
2024-02-19T16:50:45.558Z,3.32
2024-02-19T16:55:48.705Z,3.39
2024-02-19T17:00:55.169Z,3.44
2024-02-19T17:05:57.386Z,3.50
2024-02-19T17:10:59.331Z,3.57
2024-02-19T17:16:02.022Z,3.65
2024-02-19T17:21:05.127Z,3.69
2024-02-19T17:26:08.057Z,3.75
2024-02-19T17:31:10.029Z,3.80
2024-02-19T17:36:11.771Z,3.86
2024-02-19T17:41:13.409Z,3.92
2024-02-19T17:46:18.944Z,3.97
2024-02-19T17:51:22.336Z,4.03
2024-02-19T17:56:26.976Z,4.12
2024-02-19T18:01:28.592Z,4.20
2024-02-19T18:06:31.532Z,4.29
2024-02-19T18:11:35.189Z,4.38
2024-02-19T18:16:40.006Z,4.47
2024-02-19T18:21:47.801Z,4.57
2024-02-19T18:26:50.021Z,4.67
2024-02-19T18:31:56.683Z,4.73
2024-02-19T18:37:00.344Z,4.79
2024-02-19T18:42:04.093Z,4.85
2024-02-19T18:47:06.548Z,4.90
2024-02-19T18:52:08.600Z,4.96
2024-02-19T18:57:10.345Z,5.00
2024-02-19T19:02:12.247Z,5.05
2024-02-19T19:07:18.515Z,5.08
2024-02-19T19:12:21.851Z,5.10
2024-02-19T19:17:24.267Z,5.11
2024-02-19T19:22:25.978Z,5.13
2024-02-19T19:27:29.253Z,5.16
2024-02-19T19:32:33.500Z,5.18
2024-02-19T19:37:35.235Z,5.20
2024-02-19T19:42:37.257Z,5.22
2024-02-19T19:47:39.168Z,5.23
2024-02-19T19:52:41.347Z,5.21
2024-02-19T19:57:50.489Z,5.19
2024-02-19T20:02:52.214Z,5.17
2024-02-19T20:07:53.859Z,5.16
2024-02-19T20:12:55.552Z,5.15
2024-02-19T20:17:57.343Z,5.09
2024-02-19T20:22:59.789Z,5.03
2024-02-19T20:28:02.308Z,4.96
2024-02-19T20:33:04.649Z,4.90
2024-02-19T20:38:06.399Z,4.88
2024-02-19T20:43:08.226Z,4.86
2024-02-19T20:48:09.971Z,4.84
2024-02-19T20:53:14.698Z,4.79
2024-02-19T20:58:17.588Z,4.76
2024-02-19T21:03:22.531Z,4.74
2024-02-19T21:08:26.224Z,4.75
2024-02-19T21:13:27.884Z,4.75
2024-02-19T21:18:34.706Z,4.76
2024-02-19T21:23:45.964Z,4.77
2024-02-19T21:28:47.500Z,4.74
2024-02-19T21:33:49.222Z,4.73
2024-02-19T21:38:51.351Z,4.74
2024-02-19T21:43:52.962Z,4.72
2024-02-19T21:48:56.400Z,4.72
2024-02-19T21:53:58.181Z,4.74
2024-02-19T21:58:59.791Z,4.74
2024-02-19T22:04:02.448Z,4.75
2024-02-19T22:09:04.299Z,4.75
2024-02-19T22:14:06.140Z,4.74
2024-02-19T22:19:07.784Z,4.74
2024-02-19T22:24:09.683Z,4.73
2024-02-19T22:29:11.291Z,4.70
2024-02-19T22:34:12.998Z,4.69
2024-02-19T22:39:15.665Z,4.68
2024-02-19T22:44:17.382Z,4.63
2024-02-19T22:49:19.076Z,4.63
2024-02-19T22:54:20.786Z,4.62
2024-02-19T22:59:24.025Z,4.62
2024-02-19T23:04:25.672Z,4.61
2024-02-19T23:09:27.241Z,4.59
2024-02-19T23:14:28.809Z,4.59
2024-02-19T23:19:30.675Z,4.59
2024-02-19T23:24:32.366Z,4.59
2024-02-19T23:29:34.660Z,4.61
2024-02-19T23:34:36.629Z,4.62
2024-02-19T23:39:39.784Z,4.63
2024-02-19T23:44:42.642Z,4.64
2024-02-19T23:49:44.384Z,4.65
2024-02-19T23:54:46.005Z,4.65
2024-02-19T23:59:47.530Z,4.66
